sensor_id;sensor_type;location;lat;lon;timestamp;P1;durP1;ratioP1;P2;durP2;ratioP2
69795;SDS011;57073;45.650;9.612;2022-10-26T00:00:24;15.30;;;7.10;;
69795;SDS011;57073;45.650;9.612;2022-10-26T00:10:25;16.23;;;6.40;;
69795;SDS011;57073;45.650;9.612;2022-10-26T00:20:25;13.67;;;6.47;;
69795;SDS011;57073;45.650;9.612;2022-10-26T00:30:26;15.27;;;5.88;;
69795;SDS011;57073;45.650;9.612;2022-10-26T00:40:27;13.75;;;5.97;;
69795;SDS011;57073;45.650;9.612;2022-10-26T00:50:32;15.53;;;5.07;;
69795;SDS011;57073;45.650;9.612;2022-10-26T01:00:40;9.27;;;4.57;;
69795;SDS011;57073;45.650;9.612;2022-10-26T01:10:41;10.32;;;5.18;;
69795;SDS011;57073;45.650;9.612;2022-10-26T01:20:53;14.67;;;5.50;;
69795;SDS011;57073;45.650;9.612;2022-10-26T01:31:14;10.60;;;4.87;;
69795;SDS011;57073;45.650;9.612;2022-10-26T01:41:24;13.27;;;5.10;;
69795;SDS011;57073;45.650;9.612;2022-10-26T01:51:29;17.73;;;5.40;;
69795;SDS011;57073;45.650;9.612;2022-10-26T02:11:47;10.87;;;4.60;;
69795;SDS011;57073;45.650;9.612;2022-10-26T02:21:53;11.37;;;5.30;;
69795;SDS011;57073;45.650;9.612;2022-10-26T02:32:02;10.32;;;4.40;;
69795;SDS011;57073;45.650;9.612;2022-10-26T02:42:05;10.50;;;4.07;;
69795;SDS011;57073;45.650;9.612;2022-10-26T02:52:14;11.10;;;3.63;;
69795;SDS011;57073;45.650;9.612;2022-10-26T03:02:22;7.30;;;3.58;;
69795;SDS011;57073;45.650;9.612;2022-10-26T03:12:22;10.23;;;4.40;;
69795;SDS011;57073;45.650;9.612;2022-10-26T03:22:23;11.47;;;4.53;;
69795;SDS011;57073;45.650;9.612;2022-10-26T03:32:23;9.27;;;4.50;;
69795;SDS011;57073;45.650;9.612;2022-10-26T03:42:23;12.40;;;4.07;;
69795;SDS011;57073;45.650;9.612;2022-10-26T03:52:24;12.10;;;4.50;;
69795;SDS011;57073;45.650;9.612;2022-10-26T04:02:24;11.80;;;4.90;;
69795;SDS011;57073;45.650;9.612;2022-10-26T04:12:24;12.30;;;4.72;;
69795;SDS011;57073;45.650;9.612;2022-10-26T04:22:25;9.35;;;4.85;;
69795;SDS011;57073;45.650;9.612;2022-10-26T04:32:25;14.35;;;5.13;;
69795;SDS011;57073;45.650;9.612;2022-10-26T04:42:25;10.53;;;4.60;;
69795;SDS011;57073;45.650;9.612;2022-10-26T04:52:26;13.73;;;5.13;;
69795;SDS011;57073;45.650;9.612;2022-10-26T05:02:27;11.57;;;5.13;;
69795;SDS011;57073;45.650;9.612;2022-10-26T05:12:27;12.73;;;5.13;;
69795;SDS011;57073;45.650;9.612;2022-10-26T05:22:28;13.25;;;4.18;;
69795;SDS011;57073;45.650;9.612;2022-10-26T05:32:28;9.98;;;3.50;;
69795;SDS011;57073;45.650;9.612;2022-10-26T05:42:29;12.97;;;3.87;;
69795;SDS011;57073;45.650;9.612;2022-10-26T05:52:29;10.53;;;4.10;;
69795;SDS011;57073;45.650;9.612;2022-10-26T06:12:37;10.37;;;3.90;;
69795;SDS011;57073;45.650;9.612;2022-10-26T06:22:41;11.32;;;4.20;;
69795;SDS011;57073;45.650;9.612;2022-10-26T06:32:51;8.18;;;3.83;;
69795;SDS011;57073;45.650;9.612;2022-10-26T06:42:54;11.70;;;4.00;;
69795;SDS011;57073;45.650;9.612;2022-10-26T07:03:14;14.80;;;4.70;;
69795;SDS011;57073;45.650;9.612;2022-10-26T07:13:14;10.17;;;4.30;;
69795;SDS011;57073;45.650;9.612;2022-10-26T07:23:14;12.95;;;5.20;;
69795;SDS011;57073;45.650;9.612;2022-10-26T07:33:15;13.97;;;4.00;;
69795;SDS011;57073;45.650;9.612;2022-10-26T07:43:16;11.07;;;4.75;;
69795;SDS011;57073;45.650;9.612;2022-10-26T07:53:16;10.10;;;4.18;;
69795;SDS011;57073;45.650;9.612;2022-10-26T08:03:17;10.80;;;3.87;;
69795;SDS011;57073;45.650;9.612;2022-10-26T08:13:17;10.85;;;4.30;;
69795;SDS011;57073;45.650;9.612;2022-10-26T08:23:18;12.23;;;4.47;;
69795;SDS011;57073;45.650;9.612;2022-10-26T08:33:18;11.30;;;4.10;;
69795;SDS011;57073;45.650;9.612;2022-10-26T08:43:21;11.03;;;3.80;;
69795;SDS011;57073;45.650;9.612;2022-10-26T08:53:43;9.80;;;3.27;;
69795;SDS011;57073;45.650;9.612;2022-10-26T09:03:49;7.10;;;3.33;;
69795;SDS011;57073;45.650;9.612;2022-10-26T09:24:35;8.80;;;4.10;;
69795;SDS011;57073;45.650;9.612;2022-10-26T09:34:40;10.27;;;4.20;;
69795;SDS011;57073;45.650;9.612;2022-10-26T09:44:49;15.63;;;5.43;;
69795;SDS011;57073;45.650;9.612;2022-10-26T09:54:54;11.67;;;5.33;;
69795;SDS011;57073;45.650;9.612;2022-10-26T10:04:54;16.73;;;6.90;;
69795;SDS011;57073;45.650;9.612;2022-10-26T10:14:57;18.95;;;8.07;;
69795;SDS011;57073;45.650;9.612;2022-10-26T10:25:02;18.47;;;8.97;;
69795;SDS011;57073;45.650;9.612;2022-10-26T10:35:03;22.48;;;10.18;;
69795;SDS011;57073;45.650;9.612;2022-10-26T10:45:23;29.63;;;11.33;;
69795;SDS011;57073;45.650;9.612;2022-10-26T10:55:26;26.30;;;11.83;;
69795;SDS011;57073;45.650;9.612;2022-10-26T11:15:49;27.02;;;11.73;;
69795;SDS011;57073;45.650;9.612;2022-10-26T11:25:56;32.17;;;12.50;;
69795;SDS011;57073;45.650;9.612;2022-10-26T11:36:07;25.57;;;11.87;;
69795;SDS011;57073;45.650;9.612;2022-10-26T11:46:15;23.73;;;10.80;;
69795;SDS011;57073;45.650;9.612;2022-10-26T11:56:18;21.90;;;10.93;;
69795;SDS011;57073;45.650;9.612;2022-10-26T12:06:32;24.67;;;11.77;;
69795;SDS011;57073;45.650;9.612;2022-10-26T12:16:52;28.47;;;11.27;;
69795;SDS011;57073;45.650;9.612;2022-10-26T12:37:52;18.65;;;10.73;;
69795;SDS011;57073;45.650;9.612;2022-10-26T13:08:09;25.13;;;13.40;;
69795;SDS011;57073;45.650;9.612;2022-10-26T13:18:15;26.85;;;13.35;;
69795;SDS011;57073;45.650;9.612;2022-10-26T13:28:41;26.67;;;13.10;;
69795;SDS011;57073;45.650;9.612;2022-10-26T13:38:47;28.13;;;13.18;;
69795;SDS011;57073;45.650;9.612;2022-10-26T13:48:48;31.23;;;12.83;;
69795;SDS011;57073;45.650;9.612;2022-10-26T13:59:09;28.40;;;13.53;;
69795;SDS011;57073;45.650;9.612;2022-10-26T14:09:12;24.52;;;11.40;;
69795;SDS011;57073;45.650;9.612;2022-10-26T14:19:15;26.30;;;12.60;;
69795;SDS011;57073;45.650;9.612;2022-10-26T14:29:24;20.48;;;10.88;;
69795;SDS011;57073;45.650;9.612;2022-10-26T14:39:30;27.57;;;13.00;;
69795;SDS011;57073;45.650;9.612;2022-10-26T14:49:32;21.93;;;11.40;;
69795;SDS011;57073;45.650;9.612;2022-10-26T14:59:32;27.20;;;12.10;;
69795;SDS011;57073;45.650;9.612;2022-10-26T15:09:37;24.83;;;11.18;;
69795;SDS011;57073;45.650;9.612;2022-10-26T15:19:43;26.10;;;12.57;;
69795;SDS011;57073;45.650;9.612;2022-10-26T15:29:45;29.23;;;12.63;;
69795;SDS011;57073;45.650;9.612;2022-10-26T15:39:47;25.57;;;11.87;;
69795;SDS011;57073;45.650;9.612;2022-10-26T15:49:48;26.77;;;12.13;;
69795;SDS011;57073;45.650;9.612;2022-10-26T15:59:48;25.17;;;11.38;;
69795;SDS011;57073;45.650;9.612;2022-10-26T16:09:48;29.83;;;11.90;;
69795;SDS011;57073;45.650;9.612;2022-10-26T16:19:49;25.60;;;11.82;;
69795;SDS011;57073;45.650;9.612;2022-10-26T16:29:49;25.00;;;12.20;;
69795;SDS011;57073;45.650;9.612;2022-10-26T16:39:49;22.30;;;11.63;;
69795;SDS011;57073;45.650;9.612;2022-10-26T16:49:50;24.70;;;12.27;;
69795;SDS011;57073;45.650;9.612;2022-10-26T16:59:50;31.00;;;11.70;;
69795;SDS011;57073;45.650;9.612;2022-10-26T17:09:51;29.52;;;13.30;;
69795;SDS011;57073;45.650;9.612;2022-10-26T17:19:51;28.58;;;13.93;;
69795;SDS011;57073;45.650;9.612;2022-10-26T17:29:51;33.40;;;13.70;;
69795;SDS011;57073;45.650;9.612;2022-10-26T17:39:52;28.45;;;12.82;;
69795;SDS011;57073;45.650;9.612;2022-10-26T17:49:52;23.00;;;11.75;;
69795;SDS011;57073;45.650;9.612;2022-10-26T17:59:52;22.30;;;11.33;;
69795;SDS011;57073;45.650;9.612;2022-10-26T18:09:53;23.02;;;10.50;;
69795;SDS011;57073;45.650;9.612;2022-10-26T18:19:53;21.95;;;10.05;;
69795;SDS011;57073;45.650;9.612;2022-10-26T18:29:53;21.87;;;10.10;;
69795;SDS011;57073;45.650;9.612;2022-10-26T18:39:54;22.38;;;10.73;;
69795;SDS011;57073;45.650;9.612;2022-10-26T18:49:54;16.95;;;9.30;;
69795;SDS011;57073;45.650;9.612;2022-10-26T18:59:55;21.47;;;10.17;;
69795;SDS011;57073;45.650;9.612;2022-10-26T19:09:55;17.77;;;9.15;;
69795;SDS011;57073;45.650;9.612;2022-10-26T19:19:55;17.47;;;9.43;;
69795;SDS011;57073;45.650;9.612;2022-10-26T19:29:56;18.98;;;9.65;;
69795;SDS011;57073;45.650;9.612;2022-10-26T19:39:56;17.43;;;9.03;;
69795;SDS011;57073;45.650;9.612;2022-10-26T19:49:57;18.05;;;9.40;;
69795;SDS011;57073;45.650;9.612;2022-10-26T19:59:58;20.43;;;9.07;;
69795;SDS011;57073;45.650;9.612;2022-10-26T20:09:58;18.63;;;9.80;;
69795;SDS011;57073;45.650;9.612;2022-10-26T20:19:59;18.38;;;10.02;;
69795;SDS011;57073;45.650;9.612;2022-10-26T20:29:59;18.90;;;10.07;;
69795;SDS011;57073;45.650;9.612;2022-10-26T20:40:01;20.03;;;9.70;;
69795;SDS011;57073;45.650;9.612;2022-10-26T20:50:03;20.27;;;9.67;;
69795;SDS011;57073;45.650;9.612;2022-10-26T21:00:06;17.10;;;9.00;;
69795;SDS011;57073;45.650;9.612;2022-10-26T21:10:09;17.07;;;8.17;;
69795;SDS011;57073;45.650;9.612;2022-10-26T21:20:10;20.00;;;9.30;;
69795;SDS011;57073;45.650;9.612;2022-10-26T21:30:10;19.30;;;8.00;;
69795;SDS011;57073;45.650;9.612;2022-10-26T21:40:11;18.70;;;8.53;;
69795;SDS011;57073;45.650;9.612;2022-10-26T21:50:13;20.50;;;9.75;;
69795;SDS011;57073;45.650;9.612;2022-10-26T22:00:13;20.03;;;10.53;;
69795;SDS011;57073;45.650;9.612;2022-10-26T22:10:14;23.43;;;10.93;;
69795;SDS011;57073;45.650;9.612;2022-10-26T22:20:14;21.60;;;9.73;;
69795;SDS011;57073;45.650;9.612;2022-10-26T22:30:15;23.08;;;10.75;;
69795;SDS011;57073;45.650;9.612;2022-10-26T22:40:15;22.47;;;10.50;;
69795;SDS011;57073;45.650;9.612;2022-10-26T22:50:15;18.63;;;10.13;;
69795;SDS011;57073;45.650;9.612;2022-10-26T23:00:16;20.67;;;9.80;;
69795;SDS011;57073;45.650;9.612;2022-10-26T23:10:16;21.90;;;10.07;;
69795;SDS011;57073;45.650;9.612;2022-10-26T23:20:16;19.92;;;10.25;;
69795;SDS011;57073;45.650;9.612;2022-10-26T23:30:17;19.37;;;9.90;;
69795;SDS011;57073;45.650;9.612;2022-10-26T23:40:17;18.88;;;9.25;;
69795;SDS011;57073;45.650;9.612;2022-10-26T23:50:18;20.67;;;10.10;;
